Alton, KS

10:35 PM CDT on May 23, 2015 (GMT -0500)
Storm Spotter Kaelan Cameron | | Change Station
CLOSE
Current Station
Personal Weather Station
Location: Osborne, KS
Elevation: 1575 ft
Nearby Weather Stations

Elev 1575 ft 39.44 °N, 98.69 °W | Updated 18 seconds ago

Overcast
Overcast
59.2 °F
Feels Like 59.2 °F
N
4.2
Wind Variable Wind from East
Gusts 7.4 mph

Today
High -- | Low -- °F
--% Chance of Precip.
Yesterday
High -- | Low -- °F
Precip. -- in
6:15 AM 8:49 PM
Waxing Crescent, 35% visible
Pressure 29.91 in
Visibility 10.0 miles
Clouds Mostly Cloudy 600 ft
Overcast 2200 ft
Dew Point 59 °F
Humidity 99%
Rainfall 0.00 in
Snow Depth Not available.
UV 0.0 out of 12
Pollen 5.20 out of 12
Air Quality Not available.
Flu Activity No Activity
METAR KRSL 240253Z AUTO 05006KT 10SM BKN006 OVC022 14/14 A2992 RMK AO2 SLP128 T01440139 53001

More Conditions Fewer Conditions

Pressure 29.91 in
Visibility 10.0 miles
Clouds Mostly Cloudy 600 ft
Overcast 2200 ft
Dew Point 59 °F
Humidity 99%
Rainfall 0.00 in
Snow Depth Not available.
UV 0.0 out of 12
Pollen 5.20 out of 12
Air Quality Not available.
Flu Activity No Activity
METAR KRSL 240253Z AUTO 05006KT 10SM BKN006 OVC022 14/14 A2992 RMK AO2 SLP128 T01440139 53001

More Conditions Fewer Conditions

10-Day Weather Forecast

Almanac

Astronomy

May. 23, 2015 Rise Set
Actual Time
Civil Twilight
Nautical Twilight
Astronomical Twilight
Moon
Length of Visible Light
Length of Day
Tomorrow will be .
, % of the Moon is Illuminated

Today's Extremes

State Highs State Lows

Community

WunderPhotos

Upload Photos

1,823,678 photos uploaded!

WunderBlogs® & News

Nearby

Air Quality

  Air Quality AQ Index Pollutant
Not available.

Snow Depth

Station Depth Elevation

Earthquake Activity

City Distance Mag. Time & Date
Minimum magnitude displayed is 2.5.

Coastal Water Temperatures

Place Temperature

Stations

Nearby Weather Stations

Station Location Temp. Windchill Dew Point Humidity Wind Precip. Elev Updated Type